首页
METAR-TAF:

METAR-TAF

机场 :

Westerland, 德国

纬度: 54-55N, 经度: 008-21E, 海拔: 16米

当前天气观测

该预报发布于21分钟前的10:20 UTC
风速11节,风向南转南东
温度 6°C
湿度 100%
气压 1007 hPa
能見度: 6000

METAR: EDXW 221020Z 15011KT 6000 NSC 06/06 Q1007

时间: 11:41 (10:41 UTC)

预报

该预报发布于2小时和4分钟前的08:37 UTC
预报有效从22日的 09点(UTC)到 22日的 18点(UTC)
风速9节,风向东南
能見度: 6000
少量云层高于600英尺
成为
从 22日的 15点(UTC)到 22日的 18点(UTC)
能見度: 3000
轻雾

TAF: EDXW 220837Z 2209/2218 14009KT 6000 FEW006 BECMG 2215/2218 3000 BR

超过4000个机场的气象观测和天气预报(METAR&TAF报告)。

可查询的气象台以黄色和红色小点在地图上表示。

将鼠标移到小点上方,可查看气象台名称。

然后点击查看天气观测和预报。

如需切换地图:点击带黑十字的绿色按钮放大地图;点击带横线的绿色按钮缩小地图;或者点击绿色箭头查看邻近地区的地图。


METAR-TAF: